createdAt,value
2022-12-12T00:00:41.300Z,1.28
2022-12-12T00:03:08.053Z,1.18
2022-12-12T00:05:34.947Z,1.17
2022-12-12T00:08:01.688Z,1.20
2022-12-12T00:10:28.338Z,1.11
2022-12-12T00:12:55.067Z,1.23
2022-12-12T00:15:21.916Z,1.28
2022-12-12T00:17:48.759Z,1.16
2022-12-12T00:20:15.580Z,1.16
2022-12-12T00:22:42.467Z,1.22
2022-12-12T00:25:09.205Z,1.13
2022-12-12T00:27:35.933Z,1.06
2022-12-12T00:30:02.536Z,1.17
2022-12-12T00:32:30.408Z,1.11
2022-12-12T00:34:57.329Z,1.14
2022-12-12T00:37:24.005Z,0.89
2022-12-12T00:39:50.597Z,0.99
2022-12-12T00:42:17.114Z,0.94
2022-12-12T00:44:43.964Z,0.92
2022-12-12T00:47:10.599Z,0.88
2022-12-12T00:49:37.268Z,1.01
2022-12-12T00:52:04.181Z,1.03
2022-12-12T00:54:30.827Z,0.93
2022-12-12T00:56:57.486Z,1.05
2022-12-12T00:59:24.052Z,0.98
2022-12-12T01:01:50.934Z,0.93
2022-12-12T01:04:17.991Z,1.05
2022-12-12T01:06:44.716Z,0.98
2022-12-12T01:09:11.236Z,1.01
2022-12-12T01:11:37.907Z,0.94
2022-12-12T01:14:04.678Z,1.02
2022-12-12T01:16:31.808Z,0.86
2022-12-12T01:18:59.893Z,0.98
2022-12-12T01:21:26.600Z,0.84
2022-12-12T01:23:53.395Z,0.86
2022-12-12T01:26:23.593Z,0.82
2022-12-12T01:28:51.031Z,0.63
2022-12-12T01:31:17.973Z,0.86
2022-12-12T01:33:46.386Z,0.94
2022-12-12T01:36:18.457Z,0.92
2022-12-12T01:38:50.247Z,0.96
2022-12-12T01:41:17.486Z,0.81
2022-12-12T01:43:44.398Z,0.93
2022-12-12T01:46:10.938Z,0.97
2022-12-12T01:48:37.435Z,0.98
2022-12-12T01:51:14.818Z,0.86
2022-12-12T01:53:41.877Z,0.96
2022-12-12T01:56:12.487Z,0.97
2022-12-12T01:58:45.800Z,0.98
2022-12-12T02:01:14.077Z,0.72
2022-12-12T02:03:42.671Z,0.83
2022-12-12T02:06:14.878Z,0.92
2022-12-12T02:08:42.083Z,0.86
2022-12-12T02:11:08.638Z,0.99
2022-12-12T02:13:36.214Z,1.00
2022-12-12T02:16:33.641Z,0.96
2022-12-12T02:19:09.639Z,0.93
2022-12-12T02:21:39.211Z,1.00
2022-12-12T02:24:36.646Z,1.00
2022-12-12T02:27:16.621Z,0.99
2022-12-12T02:30:05.097Z,0.99
2022-12-12T02:32:46.726Z,0.99
2022-12-12T02:35:44.453Z,0.99
2022-12-12T02:38:24.820Z,0.97
2022-12-12T02:40:58.865Z,0.96
2022-12-12T02:43:40.991Z,0.94
2022-12-12T02:46:14.624Z,0.89
2022-12-12T02:48:50.989Z,0.79
2022-12-12T02:51:19.223Z,0.92
2022-12-12T02:53:46.068Z,0.85
2022-12-12T02:56:54.767Z,0.90
2022-12-12T02:59:25.914Z,0.91
2022-12-12T03:01:58.369Z,0.90
2022-12-12T03:04:56.175Z,0.87
2022-12-12T03:07:57.626Z,0.91
2022-12-12T03:11:02.426Z,0.90
2022-12-12T03:13:47.565Z,0.85
2022-12-12T03:16:30.692Z,0.82
2022-12-12T03:19:09.659Z,0.88
2022-12-12T03:22:17.684Z,0.92
2022-12-12T03:24:55.020Z,0.77
2022-12-12T03:27:47.597Z,0.93
2022-12-12T03:30:18.171Z,0.94
2022-12-12T03:33:06.100Z,0.89
2022-12-12T03:35:44.052Z,0.93
2022-12-12T03:38:43.024Z,0.96
2022-12-12T03:41:17.826Z,0.96
2022-12-12T03:43:56.963Z,0.83
2022-12-12T03:46:32.997Z,0.80
2022-12-12T03:49:10.595Z,0.92
2022-12-12T03:51:42.450Z,0.91
2022-12-12T03:54:17.859Z,0.87
2022-12-12T03:56:59.183Z,0.85
2022-12-12T03:59:36.335Z,0.85
2022-12-12T04:02:15.593Z,0.85
2022-12-12T04:05:00.775Z,0.80
2022-12-12T04:07:36.320Z,0.79
2022-12-12T04:10:22.313Z,0.70
2022-12-12T04:13:04.715Z,0.76
2022-12-12T04:16:00.162Z,0.77
2022-12-12T04:18:54.603Z,0.72
2022-12-12T04:22:04.630Z,0.72
2022-12-12T04:25:26.158Z,0.73
2022-12-12T04:28:00.954Z,0.45
2022-12-12T04:30:29.979Z,0.60
2022-12-12T04:33:25.119Z,0.65
2022-12-12T04:35:53.733Z,0.55
2022-12-12T04:38:24.170Z,0.66
2022-12-12T04:40:58.222Z,0.51
2022-12-12T04:43:33.384Z,0.69
2022-12-12T04:46:04.897Z,0.69
2022-12-12T04:48:38.611Z,0.58
2022-12-12T04:51:09.215Z,0.67
2022-12-12T04:53:40.033Z,0.67
2022-12-12T04:56:13.785Z,0.46
2022-12-12T04:58:40.762Z,0.52
2022-12-12T05:01:13.417Z,0.43
2022-12-12T05:03:55.583Z,0.70
2022-12-12T05:06:29.400Z,0.68
2022-12-12T05:08:58.283Z,0.62
2022-12-12T05:11:24.878Z,0.59
2022-12-12T05:13:51.454Z,0.68
2022-12-12T05:16:26.914Z,0.81
2022-12-12T05:18:53.878Z,0.76
2022-12-12T05:21:21.570Z,0.86
2022-12-12T05:23:48.208Z,0.66
2022-12-12T05:26:23.882Z,0.88
2022-12-12T05:28:51.600Z,0.70
2022-12-12T05:31:18.237Z,0.77
2022-12-12T05:33:45.232Z,0.74
2022-12-12T05:36:12.591Z,0.81
2022-12-12T05:38:39.627Z,0.81
2022-12-12T05:41:06.502Z,0.71
2022-12-12T05:43:33.249Z,0.73
2022-12-12T05:46:00.463Z,0.87
2022-12-12T05:48:27.333Z,0.86
2022-12-12T05:50:54.041Z,0.75
2022-12-12T05:53:21.255Z,0.86
2022-12-12T05:55:51.041Z,0.82
2022-12-12T05:58:18.675Z,0.82
2022-12-12T06:00:48.206Z,0.75
2022-12-12T06:03:15.007Z,0.76
2022-12-12T06:05:41.918Z,0.82
2022-12-12T06:08:08.508Z,0.61
2022-12-12T06:10:35.557Z,0.78
2022-12-12T06:13:02.148Z,0.61
2022-12-12T06:15:28.952Z,0.87
2022-12-12T06:17:55.623Z,0.86
2022-12-12T06:20:22.257Z,0.62
2022-12-12T06:22:53.432Z,0.88
2022-12-12T06:25:20.832Z,0.75
2022-12-12T06:27:47.494Z,0.78
2022-12-12T06:30:14.577Z,0.86
2022-12-12T06:32:41.292Z,0.80
2022-12-12T06:35:08.229Z,0.65
2022-12-12T06:37:35.163Z,0.85
2022-12-12T06:40:01.742Z,0.74
2022-12-12T06:42:28.422Z,0.64
2022-12-12T06:44:55.070Z,0.88
2022-12-12T06:47:21.764Z,0.65
2022-12-12T06:49:48.446Z,0.90
2022-12-12T06:52:15.216Z,0.84
2022-12-12T06:54:41.784Z,0.97
2022-12-12T06:57:08.491Z,0.79
2022-12-12T06:59:35.053Z,0.91
2022-12-12T07:02:01.848Z,0.92
2022-12-12T07:04:28.483Z,0.92
2022-12-12T07:06:55.266Z,0.98
2022-12-12T07:09:21.915Z,0.85
2022-12-12T07:11:48.422Z,0.91
2022-12-12T07:14:15.146Z,0.91
2022-12-12T07:16:43.994Z,0.89
2022-12-12T07:19:10.800Z,0.93
2022-12-12T07:21:39.856Z,0.86
2022-12-12T07:24:06.654Z,0.93
2022-12-12T07:26:33.556Z,0.80
2022-12-12T07:29:00.266Z,0.79
2022-12-12T07:31:26.931Z,0.93
2022-12-12T07:33:54.757Z,0.79
2022-12-12T07:36:21.393Z,0.79
2022-12-12T07:38:48.117Z,0.93
2022-12-12T07:41:17.193Z,1.08
2022-12-12T07:43:45.973Z,1.02
2022-12-12T07:46:17.576Z,0.79
2022-12-12T07:48:44.784Z,1.02
2022-12-12T07:51:11.995Z,0.93
2022-12-12T07:53:39.027Z,0.75
2022-12-12T07:56:07.608Z,0.80
2022-12-12T07:58:36.092Z,0.90
2022-12-12T08:01:14.112Z,1.06
2022-12-12T08:03:42.345Z,0.78
2022-12-12T08:06:09.247Z,0.93
2022-12-12T08:08:35.794Z,0.89
2022-12-12T08:11:08.078Z,1.06
2022-12-12T08:13:36.705Z,0.75
2022-12-12T08:16:05.252Z,1.04
2022-12-12T08:18:32.088Z,0.92
2022-12-12T08:20:58.776Z,1.05
2022-12-12T08:23:25.299Z,0.98
2022-12-12T08:25:51.912Z,0.88
2022-12-12T08:28:18.562Z,0.91
2022-12-12T08:30:49.298Z,0.81
2022-12-12T08:33:16.040Z,1.00
2022-12-12T08:35:42.661Z,1.09
2022-12-12T08:38:09.188Z,0.96
2022-12-12T08:40:38.647Z,1.13
2022-12-12T08:43:05.758Z,1.14
2022-12-12T08:45:32.404Z,1.09
2022-12-12T08:47:58.932Z,1.02
2022-12-12T08:50:26.284Z,1.05
2022-12-12T08:52:53.067Z,1.15
2022-12-12T08:55:20.192Z,1.19
2022-12-12T08:57:46.935Z,1.18
2022-12-12T09:00:14.062Z,1.24
2022-12-12T09:02:40.880Z,1.17
2022-12-12T09:05:08.142Z,1.24
2022-12-12T09:07:35.697Z,1.17
2022-12-12T09:10:03.055Z,1.31
2022-12-12T09:12:29.728Z,1.25
2022-12-12T09:14:56.266Z,1.23
2022-12-12T09:17:23.234Z,1.16
2022-12-12T09:19:49.904Z,1.37
2022-12-12T09:22:18.172Z,1.07
2022-12-12T09:24:44.739Z,1.21
2022-12-12T09:27:11.328Z,1.14
2022-12-12T09:29:38.101Z,1.22
2022-12-12T09:32:06.599Z,1.14
2022-12-12T09:34:34.328Z,1.45
2022-12-12T09:37:01.545Z,1.16
2022-12-12T09:39:29.287Z,1.37
2022-12-12T09:41:57.572Z,1.37
2022-12-12T09:44:26.402Z,1.48
2022-12-12T09:46:57.651Z,1.06
2022-12-12T09:49:38.440Z,1.28
2022-12-12T09:52:13.448Z,1.47
2022-12-12T09:54:40.544Z,1.04
2022-12-12T09:57:22.417Z,1.17
2022-12-12T10:00:02.047Z,1.14
2022-12-12T10:02:31.748Z,1.46
2022-12-12T10:05:07.773Z,1.28
2022-12-12T10:07:46.136Z,1.09
2022-12-12T10:10:24.475Z,1.38
2022-12-12T10:12:54.703Z,1.12
2022-12-12T10:15:43.239Z,1.33
2022-12-12T10:18:17.641Z,1.12
2022-12-12T10:20:51.319Z,1.18
2022-12-12T10:23:46.476Z,1.08
2022-12-12T10:26:19.151Z,1.29
2022-12-12T10:28:50.386Z,1.25
2022-12-12T10:31:43.157Z,1.28
2022-12-12T10:34:32.277Z,1.00
2022-12-12T10:37:11.496Z,1.28
2022-12-12T10:39:47.259Z,1.09
2022-12-12T10:42:44.336Z,1.28
2022-12-12T10:45:48.709Z,1.26
2022-12-12T10:48:15.386Z,1.12
2022-12-12T10:50:50.386Z,1.17
2022-12-12T10:53:17.642Z,1.16
2022-12-12T10:55:49.004Z,1.26
2022-12-12T10:58:17.260Z,1.18
2022-12-12T11:00:46.669Z,1.28
2022-12-12T11:03:32.506Z,1.28
2022-12-12T11:06:06.369Z,1.08
2022-12-12T11:08:37.869Z,1.17
2022-12-12T11:11:21.504Z,1.14
2022-12-12T11:13:54.736Z,1.28
2022-12-12T11:16:27.903Z,1.08
2022-12-12T11:19:18.065Z,1.28
2022-12-12T11:21:45.996Z,1.03
2022-12-12T11:24:19.323Z,0.90
2022-12-12T11:27:07.517Z,1.20
2022-12-12T11:29:40.249Z,1.18
2022-12-12T11:32:23.527Z,1.05
2022-12-12T11:34:57.052Z,0.95
2022-12-12T11:37:33.292Z,0.90
2022-12-12T11:40:00.463Z,1.12
2022-12-12T11:42:30.698Z,0.96
2022-12-12T11:45:21.526Z,0.96
2022-12-12T11:47:48.779Z,1.12
2022-12-12T11:50:23.256Z,0.95
2022-12-12T11:53:09.242Z,0.88
2022-12-12T11:55:54.787Z,0.91
2022-12-12T11:58:27.863Z,0.92
2022-12-12T12:01:07.076Z,1.02
2022-12-12T12:03:47.787Z,1.03
2022-12-12T12:06:35.792Z,1.06
2022-12-12T12:09:36.376Z,1.06
2022-12-12T12:12:12.203Z,0.93
2022-12-12T12:14:57.397Z,1.07
2022-12-12T12:17:46.031Z,0.77
2022-12-12T12:20:33.655Z,0.88
2022-12-12T12:23:08.675Z,0.90
2022-12-12T12:25:58.619Z,1.02
2022-12-12T12:29:00.001Z,1.04
2022-12-12T12:31:41.739Z,1.07
2022-12-12T12:34:21.981Z,0.92
2022-12-12T12:37:02.145Z,1.11
2022-12-12T12:39:54.101Z,1.02
2022-12-12T12:42:49.275Z,1.18
2022-12-12T12:45:22.352Z,0.94
2022-12-12T12:48:07.233Z,0.99
2022-12-12T12:50:42.406Z,1.21
2022-12-12T12:53:29.125Z,0.97
2022-12-12T12:56:03.078Z,0.96
2022-12-12T12:58:44.465Z,0.75
2022-12-12T13:01:21.084Z,0.84
2022-12-12T13:04:03.169Z,1.22
2022-12-12T13:07:08.948Z,1.25
2022-12-12T13:09:42.046Z,1.26
2022-12-12T13:12:42.719Z,1.30
2022-12-12T13:15:41.806Z,1.11
2022-12-12T13:18:13.728Z,1.31
2022-12-12T13:20:44.712Z,1.27
2022-12-12T13:23:37.303Z,1.42
2022-12-12T13:26:21.736Z,1.35
2022-12-12T13:29:04.396Z,1.51
2022-12-12T13:31:42.863Z,1.53
2022-12-12T13:34:17.493Z,1.42
2022-12-12T13:36:49.084Z,1.54
2022-12-12T13:39:28.671Z,1.41
2022-12-12T13:42:02.562Z,1.68
2022-12-12T13:44:33.803Z,1.41
2022-12-12T13:47:00.423Z,1.73
2022-12-12T13:49:33.342Z,1.76
2022-12-12T13:52:41.535Z,1.53
2022-12-12T13:55:11.273Z,1.84
2022-12-12T13:57:59.075Z,1.87
2022-12-12T14:00:28.349Z,1.53
2022-12-12T14:03:02.829Z,1.61
2022-12-12T14:05:36.797Z,1.52
2022-12-12T14:08:08.617Z,1.52
2022-12-12T14:10:41.336Z,1.96
2022-12-12T14:13:16.325Z,1.92
2022-12-12T14:15:44.763Z,1.95
2022-12-12T14:18:22.938Z,2.01
2022-12-12T14:21:05.925Z,1.88
2022-12-12T14:23:42.386Z,1.93
2022-12-12T14:26:28.562Z,1.96
2022-12-12T14:29:17.334Z,1.94
2022-12-12T14:31:53.636Z,1.59
2022-12-12T14:34:29.281Z,1.68
2022-12-12T14:37:45.819Z,1.56
2022-12-12T14:40:21.760Z,1.87
2022-12-12T14:43:19.877Z,1.80
2022-12-12T14:45:51.682Z,1.85
2022-12-12T14:48:30.569Z,1.68
2022-12-12T14:51:26.067Z,1.77
2022-12-12T14:53:58.520Z,1.62
2022-12-12T14:56:32.776Z,1.40
2022-12-12T14:58:59.725Z,1.75
2022-12-12T15:01:36.696Z,1.62
2022-12-12T15:04:07.499Z,1.62
2022-12-12T15:06:39.600Z,1.51
2022-12-12T15:09:17.475Z,1.66
2022-12-12T15:11:45.216Z,1.53
2022-12-12T15:14:27.050Z,1.67
2022-12-12T15:16:58.952Z,1.74
2022-12-12T15:19:30.250Z,1.82
2022-12-12T15:21:58.170Z,1.55
2022-12-12T15:24:28.214Z,1.64
2022-12-12T15:26:58.114Z,1.81
2022-12-12T15:29:30.270Z,1.60
2022-12-12T15:32:04.811Z,1.29
2022-12-12T15:34:40.812Z,1.83
2022-12-12T15:37:22.352Z,1.66
2022-12-12T15:40:09.571Z,1.83
2022-12-12T15:42:38.551Z,1.84
2022-12-12T15:45:09.997Z,1.55
2022-12-12T15:47:39.539Z,1.28
2022-12-12T15:50:14.015Z,1.22
2022-12-12T15:52:42.494Z,1.59
2022-12-12T15:55:22.556Z,1.67
2022-12-12T15:57:52.358Z,1.62
2022-12-12T16:00:31.951Z,1.84
2022-12-12T16:03:04.002Z,1.53
2022-12-12T16:05:36.086Z,1.57
2022-12-12T16:08:35.980Z,1.86
2022-12-12T16:11:31.759Z,1.84
2022-12-12T16:13:59.414Z,1.46
2022-12-12T16:16:43.802Z,1.79
2022-12-12T16:19:35.352Z,1.84
2022-12-12T16:22:40.790Z,1.35
2022-12-12T16:25:32.504Z,1.54
2022-12-12T16:27:59.446Z,1.84
2022-12-12T16:30:27.080Z,1.50
2022-12-12T16:32:54.502Z,1.68
2022-12-12T16:35:26.070Z,1.83
2022-12-12T16:37:53.788Z,1.58
2022-12-12T16:40:21.907Z,1.81
2022-12-12T16:42:59.412Z,1.73
2022-12-12T16:45:26.206Z,1.71
2022-12-12T16:47:53.263Z,1.69
2022-12-12T16:50:19.947Z,1.56
2022-12-12T16:52:46.651Z,1.85
2022-12-12T16:55:23.387Z,1.88
2022-12-12T16:57:50.948Z,1.58
2022-12-12T17:00:18.212Z,1.66
2022-12-12T17:02:45.012Z,1.58
2022-12-12T17:05:20.677Z,1.88
2022-12-12T17:07:50.408Z,1.90
2022-12-12T17:10:18.321Z,1.25
2022-12-12T17:12:45.160Z,1.62
2022-12-12T17:15:20.457Z,1.91
2022-12-12T17:17:47.280Z,1.84
2022-12-12T17:20:14.310Z,1.70
2022-12-12T17:22:41.733Z,1.79
2022-12-12T17:25:09.774Z,1.69
2022-12-12T17:27:37.281Z,1.77
2022-12-12T17:30:12.076Z,1.58
2022-12-12T17:32:42.041Z,1.60
2022-12-12T17:35:09.415Z,1.92
2022-12-12T17:37:36.902Z,1.98
2022-12-12T17:40:07.208Z,1.96
2022-12-12T17:42:39.581Z,1.57
2022-12-12T17:45:07.697Z,1.96
2022-12-12T17:47:34.454Z,1.71
2022-12-12T17:50:01.199Z,1.47
2022-12-12T17:52:28.139Z,1.55
2022-12-12T17:55:51.394Z,1.69
2022-12-12T17:57:41.218Z,1.76
2022-12-12T18:00:09.203Z,1.39
2022-12-12T18:02:35.773Z,1.47
2022-12-12T18:05:04.161Z,1.37
2022-12-12T18:07:31.202Z,1.29
2022-12-12T18:10:00.619Z,1.44
2022-12-12T18:12:27.410Z,1.38
2022-12-12T18:14:53.943Z,1.30
2022-12-12T18:17:20.790Z,1.16
2022-12-12T18:19:47.554Z,1.13
2022-12-12T18:22:14.157Z,1.00
2022-12-12T18:24:40.925Z,1.16
2022-12-12T18:27:07.541Z,0.99
2022-12-12T18:29:34.090Z,1.14
2022-12-12T18:32:00.817Z,1.10
2022-12-12T18:34:27.500Z,0.83
2022-12-12T18:36:54.200Z,0.84
2022-12-12T18:39:21.173Z,0.77
2022-12-12T18:41:47.850Z,0.81
2022-12-12T18:44:15.660Z,0.75
2022-12-12T18:46:43.884Z,0.86
2022-12-12T18:49:15.901Z,0.76
2022-12-12T18:51:43.697Z,0.69
2022-12-12T18:54:15.073Z,0.72
2022-12-12T18:56:44.367Z,0.66
2022-12-12T18:59:11.481Z,0.46
2022-12-12T19:01:38.949Z,0.42
2022-12-12T19:04:12.212Z,0.33
2022-12-12T19:06:41.424Z,0.11
2022-12-12T19:09:12.765Z,0.35
2022-12-12T19:11:39.401Z,0.35
2022-12-12T19:14:07.561Z,0.15
2022-12-12T19:16:35.065Z,0.12
2022-12-12T19:19:05.627Z,0.06
2022-12-12T19:21:33.862Z,-0.02
2022-12-12T19:24:02.142Z,0.16
2022-12-12T19:26:29.884Z,0.07
2022-12-12T19:29:07.657Z,-0.09
2022-12-12T19:31:36.121Z,0.08
2022-12-12T19:34:04.763Z,0.09
2022-12-12T19:36:31.616Z,-0.20
2022-12-12T19:39:00.166Z,-0.02
2022-12-12T19:41:28.006Z,-0.02
2022-12-12T19:43:56.846Z,-0.06
2022-12-12T19:46:26.123Z,-0.15
2022-12-12T19:49:00.176Z,-0.13
2022-12-12T19:51:29.112Z,-0.29
2022-12-12T19:53:57.979Z,-0.15
2022-12-12T19:56:27.216Z,-0.24
2022-12-12T19:58:58.528Z,-0.52
2022-12-12T20:01:29.333Z,-0.45
2022-12-12T20:03:58.364Z,-0.29
2022-12-12T20:06:25.942Z,-0.36
2022-12-12T20:08:52.797Z,-0.35
2022-12-12T20:11:23.296Z,-0.46
2022-12-12T20:13:54.948Z,-0.26
2022-12-12T20:16:25.690Z,-0.24
2022-12-12T20:18:53.256Z,-0.50
2022-12-12T20:21:59.209Z,-0.24
2022-12-12T20:24:15.066Z,-0.42
2022-12-12T20:26:41.908Z,-0.31
2022-12-12T20:29:09.764Z,-0.26
2022-12-12T20:31:48.758Z,-0.58
2022-12-12T20:34:18.243Z,-0.27
2022-12-12T20:36:46.047Z,-0.35
2022-12-12T20:39:16.369Z,-0.43
2022-12-12T20:41:46.862Z,-0.46
2022-12-12T20:44:14.414Z,-0.54
2022-12-12T20:46:44.516Z,-0.78
2022-12-12T20:49:16.074Z,-0.45
2022-12-12T20:51:56.346Z,-0.34
2022-12-12T20:54:24.986Z,-0.22
2022-12-12T20:56:54.932Z,-0.14
2022-12-12T20:59:22.193Z,-0.07
2022-12-12T21:01:51.611Z,-0.02
2022-12-12T21:04:18.398Z,-0.09
2022-12-12T21:06:48.746Z,-0.03
2022-12-12T21:09:22.826Z,0.02
2022-12-12T21:11:52.284Z,0.32
2022-12-12T21:14:23.968Z,0.14
2022-12-12T21:16:51.092Z,0.20
2022-12-12T21:19:19.088Z,0.29
2022-12-12T21:21:46.663Z,0.42
2022-12-12T21:24:19.542Z,0.43
2022-12-12T21:26:53.768Z,0.17
2022-12-12T21:29:23.517Z,0.05
2022-12-12T21:31:52.443Z,-0.11
2022-12-12T21:34:24.192Z,-0.15
2022-12-12T21:36:55.490Z,0.14
2022-12-12T21:39:30.424Z,-0.13
2022-12-12T21:42:00.839Z,-0.18
2022-12-12T21:44:28.435Z,-0.19
2022-12-12T21:46:58.024Z,-0.23
2022-12-12T21:49:30.163Z,-0.03
2022-12-12T21:52:02.013Z,-0.13
2022-12-12T21:54:29.909Z,0.07
2022-12-12T21:56:59.789Z,-0.22
2022-12-12T21:59:27.238Z,-0.13
2022-12-12T22:01:56.381Z,-0.30
2022-12-12T22:04:23.878Z,-0.23
2022-12-12T22:06:50.720Z,-0.16
2022-12-12T22:09:18.049Z,-0.26
2022-12-12T22:11:50.184Z,-0.41
2022-12-12T22:14:21.147Z,-0.50
2022-12-12T22:16:48.389Z,-0.66
2022-12-12T22:19:16.666Z,-0.77
2022-12-12T22:21:45.327Z,-0.59
2022-12-12T22:24:11.966Z,-0.41
2022-12-12T22:26:40.830Z,-0.70
2022-12-12T22:29:10.980Z,-0.41
2022-12-12T22:31:39.028Z,-0.52
2022-12-12T22:34:08.341Z,-0.49
2022-12-12T22:36:37.114Z,-0.51
2022-12-12T22:39:05.685Z,-0.66
2022-12-12T22:41:32.959Z,-0.82
2022-12-12T22:44:02.417Z,-0.88
2022-12-12T22:46:31.968Z,-1.16
2022-12-12T22:49:01.435Z,-0.95
2022-12-12T22:51:30.972Z,-0.71
2022-12-12T22:53:59.362Z,-0.87
2022-12-12T22:56:27.518Z,-0.91
2022-12-12T22:58:54.583Z,-0.90
2022-12-12T23:01:22.764Z,-0.79
2022-12-12T23:03:49.602Z,-0.87
2022-12-12T23:06:36.764Z,-0.86
2022-12-12T23:09:09.214Z,-0.86
2022-12-12T23:11:36.635Z,-0.87
2022-12-12T23:14:08.834Z,-1.06
2022-12-12T23:16:36.303Z,-1.02
2022-12-12T23:19:08.078Z,-0.87
2022-12-12T23:21:36.417Z,-0.83
2022-12-12T23:24:04.107Z,-1.11
2022-12-12T23:26:35.227Z,-0.79
2022-12-12T23:29:02.268Z,-0.92
2022-12-12T23:31:32.359Z,-0.76
2022-12-12T23:34:04.795Z,-0.74
2022-12-12T23:36:32.094Z,-0.79
2022-12-12T23:39:04.157Z,-0.72
2022-12-12T23:41:30.693Z,-0.72
2022-12-12T23:43:57.670Z,-0.92
2022-12-12T23:46:34.415Z,-0.71
2022-12-12T23:49:13.506Z,-0.71
2022-12-12T23:51:45.913Z,-0.75
2022-12-12T23:54:16.211Z,-0.80
2022-12-12T23:56:44.104Z,-0.84
2022-12-12T23:59:17.163Z,-0.85
